createdAt,value
2023-02-15T00:02:03.131Z,9.05
2023-02-15T00:04:47.747Z,9.03
2023-02-15T00:07:16.131Z,9.00
2023-02-15T00:09:42.770Z,8.99
2023-02-15T00:12:10.774Z,8.98
2023-02-15T00:14:37.117Z,8.95
2023-02-15T00:17:04.823Z,8.92
2023-02-15T00:19:32.198Z,8.89
2023-02-15T00:21:58.817Z,8.87
2023-02-15T00:24:25.539Z,8.87
2023-02-15T00:26:51.938Z,8.85
2023-02-15T00:29:20.424Z,8.84
2023-02-15T00:31:47.173Z,8.84
2023-02-15T00:34:23.887Z,8.84
2023-02-15T00:36:50.973Z,8.80
2023-02-15T00:39:18.326Z,8.74
2023-02-15T00:41:45.477Z,8.72
2023-02-15T00:44:12.197Z,8.67
2023-02-15T00:46:38.729Z,8.66
2023-02-15T00:49:06.109Z,8.63
2023-02-15T00:51:33.502Z,8.62
2023-02-15T00:53:59.801Z,8.62
2023-02-15T00:56:26.301Z,8.59
2023-02-15T00:58:52.641Z,8.58
2023-02-15T01:01:21.167Z,8.58
2023-02-15T01:03:48.013Z,8.57
2023-02-15T01:06:16.514Z,8.56
2023-02-15T01:08:42.866Z,8.57
2023-02-15T01:11:12.093Z,8.57
2023-02-15T01:13:41.191Z,8.55
2023-02-15T01:16:08.397Z,8.50
2023-02-15T01:18:35.558Z,8.47
2023-02-15T01:21:14.882Z,8.44
2023-02-15T01:23:43.049Z,8.44
2023-02-15T01:26:10.519Z,8.41
2023-02-15T01:28:37.346Z,8.39
2023-02-15T01:31:12.052Z,8.36
2023-02-15T01:33:39.417Z,8.35
2023-02-15T01:36:07.311Z,8.34
2023-02-15T01:38:36.356Z,8.31
2023-02-15T01:41:23.694Z,8.29
2023-02-15T01:43:53.057Z,8.26
2023-02-15T01:46:23.482Z,8.23
2023-02-15T01:48:56.383Z,8.20
2023-02-15T01:51:26.973Z,8.17
2023-02-15T01:54:02.818Z,8.15
2023-02-15T01:56:34.268Z,8.12
2023-02-15T01:59:06.811Z,8.10
2023-02-15T02:01:33.254Z,8.10
2023-02-15T02:04:14.083Z,8.06
2023-02-15T02:06:40.970Z,8.07
2023-02-15T02:09:07.810Z,8.07
2023-02-15T02:11:35.611Z,8.04
2023-02-15T02:14:02.073Z,8.03
2023-02-15T02:16:31.433Z,8.02
2023-02-15T02:19:53.699Z,7.99
2023-02-15T02:22:58.023Z,7.98
2023-02-15T02:26:17.332Z,7.96
2023-02-15T02:29:05.277Z,7.94
2023-02-15T02:32:02.509Z,7.93
2023-02-15T02:34:47.372Z,7.87
2023-02-15T02:37:33.993Z,7.84
2023-02-15T02:40:14.213Z,7.82
2023-02-15T02:42:54.682Z,7.80
2023-02-15T02:45:25.881Z,7.78
2023-02-15T02:47:59.426Z,7.78
2023-02-15T02:50:30.785Z,7.78
2023-02-15T02:52:59.629Z,7.76
2023-02-15T02:55:39.868Z,7.73
2023-02-15T02:58:09.140Z,7.76
2023-02-15T03:00:43.913Z,7.73
2023-02-15T03:03:16.237Z,7.72
2023-02-15T03:05:46.000Z,7.69
2023-02-15T03:08:22.778Z,7.68
2023-02-15T03:10:53.456Z,7.67
2023-02-15T03:13:20.634Z,7.64
2023-02-15T03:16:06.343Z,7.62
2023-02-15T03:18:39.878Z,7.61
2023-02-15T03:21:10.458Z,7.58
2023-02-15T03:23:39.255Z,7.58
2023-02-15T03:26:10.463Z,7.55
2023-02-15T03:28:42.332Z,7.55
2023-02-15T03:31:11.067Z,7.54
2023-02-15T03:33:45.544Z,7.52
2023-02-15T03:36:26.635Z,7.51
2023-02-15T03:39:17.266Z,7.49
2023-02-15T03:41:51.338Z,7.46
2023-02-15T03:44:28.015Z,7.44
2023-02-15T03:47:16.831Z,7.43
2023-02-15T03:49:48.639Z,7.39
2023-02-15T03:52:16.957Z,7.35
2023-02-15T03:54:44.633Z,7.32
2023-02-15T03:57:36.360Z,7.30
2023-02-15T04:00:27.454Z,7.28
2023-02-15T04:03:16.584Z,7.25
2023-02-15T04:05:44.715Z,7.25
2023-02-15T04:08:13.081Z,7.24
2023-02-15T04:10:56.913Z,7.22
2023-02-15T04:13:30.595Z,7.19
2023-02-15T04:16:07.348Z,7.17
2023-02-15T04:18:55.846Z,7.15
2023-02-15T04:21:42.331Z,7.13
2023-02-15T04:24:28.199Z,7.12
2023-02-15T04:26:55.500Z,7.11
2023-02-15T04:29:23.045Z,7.10
2023-02-15T04:31:50.487Z,7.10
2023-02-15T04:34:17.169Z,7.10
2023-02-15T04:36:45.245Z,7.09
2023-02-15T04:39:14.787Z,7.07
2023-02-15T04:41:41.511Z,7.07
2023-02-15T04:44:10.956Z,7.07
2023-02-15T04:49:04.927Z,7.07
2023-02-15T04:51:31.660Z,7.06
2023-02-15T04:53:58.051Z,7.06
2023-02-15T04:56:24.446Z,7.05
2023-02-15T04:58:51.010Z,7.05
2023-02-15T05:01:18.436Z,7.04
2023-02-15T05:03:44.914Z,7.04
2023-02-15T05:06:11.285Z,7.02
2023-02-15T05:08:37.936Z,7.03
2023-02-15T05:11:04.544Z,7.02
2023-02-15T05:13:31.157Z,7.01
2023-02-15T05:15:57.675Z,6.99
2023-02-15T05:18:24.185Z,6.99
2023-02-15T05:20:50.693Z,6.99
2023-02-15T05:23:17.314Z,6.97
2023-02-15T05:26:10.129Z,6.95
2023-02-15T05:28:38.134Z,6.96
2023-02-15T05:31:18.099Z,6.96
2023-02-15T05:33:45.438Z,6.94
2023-02-15T05:36:12.138Z,6.92
2023-02-15T05:38:39.511Z,6.89
2023-02-15T05:41:10.470Z,6.86
2023-02-15T05:43:37.915Z,6.87
2023-02-15T05:46:06.717Z,6.87
2023-02-15T05:48:33.970Z,6.86
2023-02-15T05:51:05.440Z,6.85
2023-02-15T05:53:34.858Z,6.84
2023-02-15T05:56:03.633Z,6.85
2023-02-15T05:58:39.718Z,6.82
2023-02-15T06:01:13.751Z,6.84
2023-02-15T06:03:40.342Z,6.85
2023-02-15T06:06:07.595Z,6.84
2023-02-15T06:08:35.595Z,6.83
2023-02-15T06:11:02.341Z,6.84
2023-02-15T06:13:29.353Z,6.84
2023-02-15T06:15:56.002Z,6.84
2023-02-15T06:18:22.518Z,6.83
2023-02-15T06:20:49.615Z,6.82
2023-02-15T06:23:16.306Z,6.81
2023-02-15T06:25:42.972Z,6.80
2023-02-15T06:28:09.296Z,6.81
2023-02-15T06:30:35.921Z,6.80
2023-02-15T06:33:02.302Z,6.80
2023-02-15T06:35:28.939Z,6.79
2023-02-15T06:37:55.542Z,6.80
2023-02-15T06:40:22.029Z,6.80
2023-02-15T06:42:50.025Z,6.79
2023-02-15T06:45:16.643Z,6.79
2023-02-15T06:47:44.006Z,6.80
2023-02-15T06:50:11.436Z,6.79
2023-02-15T06:52:37.834Z,6.82
2023-02-15T06:55:04.487Z,6.82
2023-02-15T06:57:31.002Z,6.83
2023-02-15T06:59:59.292Z,6.84
2023-02-15T07:02:25.790Z,6.84
2023-02-15T07:04:52.429Z,6.82
2023-02-15T07:07:18.779Z,6.83
2023-02-15T07:09:45.160Z,6.85
2023-02-15T07:12:30.252Z,6.86
2023-02-15T07:14:57.070Z,6.88
2023-02-15T07:17:39.007Z,6.89
2023-02-15T07:20:08.780Z,6.90
2023-02-15T07:22:37.378Z,6.91
2023-02-15T07:25:05.554Z,6.91
2023-02-15T07:27:32.868Z,6.92
2023-02-15T07:30:00.459Z,6.96
2023-02-15T07:32:31.704Z,6.98
2023-02-15T07:34:58.467Z,7.03
2023-02-15T07:37:26.280Z,7.06
2023-02-15T07:39:53.072Z,7.11
2023-02-15T07:42:20.947Z,7.15
2023-02-15T07:44:50.380Z,7.19
2023-02-15T07:47:17.004Z,7.25
2023-02-15T07:49:43.519Z,7.30
2023-02-15T07:52:09.923Z,7.36
2023-02-15T07:54:36.618Z,7.41
2023-02-15T07:57:03.241Z,7.46
2023-02-15T07:59:29.890Z,7.51
2023-02-15T08:01:57.370Z,7.55
2023-02-15T08:04:24.332Z,7.63
2023-02-15T08:06:54.256Z,7.69
2023-02-15T08:09:21.495Z,7.77
2023-02-15T08:11:48.187Z,7.84
2023-02-15T08:14:17.398Z,7.92
2023-02-15T08:16:48.273Z,8.00
2023-02-15T08:19:19.292Z,8.07
2023-02-15T08:21:48.263Z,8.16
2023-02-15T08:24:16.233Z,8.24
2023-02-15T08:26:43.727Z,8.34
2023-02-15T08:29:10.527Z,8.44
2023-02-15T08:31:38.510Z,8.56
2023-02-15T08:34:05.841Z,8.66
2023-02-15T08:36:34.837Z,8.79
2023-02-15T08:39:04.023Z,8.91
2023-02-15T08:41:37.625Z,9.03
2023-02-15T08:44:08.593Z,9.15
2023-02-15T08:46:37.446Z,9.27
2023-02-15T08:49:05.680Z,9.41
2023-02-15T08:51:35.150Z,9.52
2023-02-15T08:54:06.785Z,9.66
2023-02-15T08:56:36.074Z,9.77
2023-02-15T08:59:03.457Z,9.88
2023-02-15T09:01:32.183Z,10.01
2023-02-15T09:04:05.065Z,10.13
2023-02-15T09:06:31.773Z,10.24
2023-02-15T09:08:58.346Z,10.35
2023-02-15T09:11:28.604Z,10.45
2023-02-15T09:14:01.564Z,10.54
2023-02-15T09:16:30.455Z,10.67
2023-02-15T09:18:58.935Z,10.76
2023-02-15T09:21:26.920Z,10.85
2023-02-15T09:24:01.989Z,10.95
2023-02-15T09:26:30.926Z,11.05
2023-02-15T09:29:01.624Z,11.15
2023-02-15T09:31:30.963Z,11.25
2023-02-15T09:34:00.044Z,11.37
2023-02-15T09:36:29.321Z,11.46
2023-02-15T09:38:58.408Z,11.56
2023-02-15T09:41:43.576Z,11.65
2023-02-15T09:44:25.212Z,11.76
2023-02-15T09:47:21.047Z,11.84
2023-02-15T09:50:24.831Z,11.97
2023-02-15T09:53:16.181Z,12.08
2023-02-15T09:55:52.289Z,12.18
2023-02-15T09:59:06.886Z,12.26
2023-02-15T10:01:40.622Z,12.39
2023-02-15T10:04:41.447Z,12.48
2023-02-15T10:07:39.437Z,12.59
2023-02-15T10:10:41.235Z,12.72
2023-02-15T10:13:46.367Z,12.85
2023-02-15T10:17:03.420Z,12.99
2023-02-15T10:20:20.662Z,13.15
2023-02-15T10:22:53.092Z,13.31
2023-02-15T10:25:36.561Z,13.45
2023-02-15T10:28:07.431Z,13.57
2023-02-15T10:30:45.946Z,13.70
2023-02-15T10:33:37.055Z,13.83
2023-02-15T10:36:06.454Z,13.98
2023-02-15T10:38:55.564Z,14.09
2023-02-15T10:41:35.431Z,14.22
2023-02-15T10:44:41.414Z,14.34
2023-02-15T10:47:31.705Z,14.47
2023-02-15T10:50:01.128Z,14.61
2023-02-15T10:52:56.613Z,14.71
2023-02-15T10:55:53.081Z,14.83
2023-02-15T10:58:41.643Z,14.97
2023-02-15T11:01:31.724Z,15.07
2023-02-15T11:04:26.143Z,15.20
2023-02-15T11:07:00.984Z,15.32
2023-02-15T11:09:39.681Z,15.45
2023-02-15T11:12:12.620Z,15.57
2023-02-15T11:14:55.111Z,15.66
2023-02-15T11:17:36.362Z,15.77
2023-02-15T11:20:23.906Z,15.89
2023-02-15T11:22:52.057Z,16.04
2023-02-15T11:25:23.293Z,16.15
2023-02-15T11:27:51.357Z,16.25
2023-02-15T11:30:24.483Z,16.36
2023-02-15T11:32:58.071Z,16.50
2023-02-15T11:35:51.882Z,16.59
2023-02-15T11:38:32.307Z,16.73
2023-02-15T11:41:20.854Z,16.84
2023-02-15T11:44:12.182Z,16.96
2023-02-15T11:46:39.315Z,17.11
2023-02-15T11:49:27.183Z,17.16
2023-02-15T11:51:54.442Z,17.30
2023-02-15T11:54:27.105Z,17.38
2023-02-15T11:56:54.256Z,17.49
2023-02-15T11:59:30.913Z,17.57
2023-02-15T12:01:57.477Z,17.67
2023-02-15T12:04:42.303Z,17.72
2023-02-15T12:07:16.901Z,17.83
2023-02-15T12:09:57.450Z,17.90
2023-02-15T12:12:27.012Z,18.02
2023-02-15T12:14:57.378Z,18.12
2023-02-15T12:17:40.520Z,18.17
2023-02-15T12:20:15.832Z,18.24
2023-02-15T12:23:03.980Z,18.31
2023-02-15T12:25:37.448Z,18.41
2023-02-15T12:28:17.773Z,18.48
2023-02-15T12:30:44.632Z,18.57
2023-02-15T12:33:24.042Z,18.61
2023-02-15T12:35:58.425Z,18.70
2023-02-15T12:38:26.481Z,18.78
2023-02-15T12:41:22.029Z,18.83
2023-02-15T12:43:48.636Z,18.91
2023-02-15T12:46:24.593Z,18.92
2023-02-15T12:49:21.344Z,18.95
2023-02-15T12:51:52.721Z,19.02
2023-02-15T12:54:37.777Z,19.03
2023-02-15T12:57:36.490Z,19.06
2023-02-15T13:00:21.869Z,19.09
2023-02-15T13:02:52.784Z,19.14
2023-02-15T13:05:39.479Z,19.13
2023-02-15T13:08:16.372Z,19.14
2023-02-15T13:10:54.641Z,19.15
2023-02-15T13:13:25.299Z,19.19
2023-02-15T13:15:55.074Z,19.18
2023-02-15T13:18:31.878Z,19.16
2023-02-15T13:21:13.546Z,19.15
2023-02-15T13:23:49.289Z,19.19
2023-02-15T13:26:23.533Z,19.20
2023-02-15T13:28:54.450Z,19.22
2023-02-15T13:31:24.640Z,19.26
2023-02-15T13:33:56.062Z,19.29
2023-02-15T13:36:45.358Z,19.32
2023-02-15T13:39:22.126Z,19.38
2023-02-15T13:42:06.857Z,19.42
2023-02-15T13:44:52.890Z,19.47
2023-02-15T13:47:51.333Z,19.50
2023-02-15T13:50:37.204Z,19.59
2023-02-15T13:53:23.963Z,19.59
2023-02-15T13:56:06.721Z,19.62
2023-02-15T13:58:53.990Z,19.65
2023-02-15T14:01:32.111Z,19.66
2023-02-15T14:04:15.123Z,19.68
2023-02-15T14:06:50.961Z,19.73
2023-02-15T14:09:44.084Z,19.71
2023-02-15T14:12:34.222Z,19.73
2023-02-15T14:15:29.210Z,19.75
2023-02-15T14:18:16.129Z,19.80
2023-02-15T14:20:46.685Z,19.80
2023-02-15T14:23:30.626Z,19.77
2023-02-15T14:26:23.204Z,19.76
2023-02-15T14:29:12.568Z,19.77
2023-02-15T14:31:47.013Z,19.80
2023-02-15T14:34:31.321Z,19.77
2023-02-15T14:36:58.753Z,19.81
2023-02-15T14:39:55.761Z,19.82
2023-02-15T14:42:32.109Z,19.81
2023-02-15T14:45:06.195Z,19.81
2023-02-15T14:47:39.547Z,19.82
2023-02-15T14:50:46.198Z,19.78
2023-02-15T14:53:28.661Z,19.79
2023-02-15T14:56:18.962Z,19.78
2023-02-15T14:58:52.510Z,19.78
2023-02-15T15:01:33.780Z,19.75
2023-02-15T15:04:05.465Z,19.77
2023-02-15T15:06:38.366Z,19.74
2023-02-15T15:09:20.845Z,19.73
2023-02-15T15:11:49.261Z,19.72
2023-02-15T15:14:35.619Z,19.67
2023-02-15T15:17:06.783Z,19.65
2023-02-15T15:19:52.834Z,19.57
2023-02-15T15:22:26.760Z,19.54
2023-02-15T15:25:05.622Z,19.46
2023-02-15T15:27:54.089Z,19.39
2023-02-15T15:30:23.509Z,19.34
2023-02-15T15:32:56.056Z,19.25
2023-02-15T15:35:31.147Z,19.15
2023-02-15T15:38:16.203Z,19.05
2023-02-15T15:41:24.564Z,18.95
2023-02-15T15:44:09.474Z,18.89
2023-02-15T15:47:10.444Z,18.74
2023-02-15T15:49:38.997Z,18.65
2023-02-15T15:52:16.146Z,18.58
2023-02-15T15:54:43.912Z,18.52
2023-02-15T15:57:40.208Z,18.34
2023-02-15T16:00:31.697Z,18.22
2023-02-15T16:02:58.320Z,18.15
2023-02-15T16:05:24.920Z,18.03
2023-02-15T16:07:51.468Z,17.91
2023-02-15T16:10:28.967Z,17.77
2023-02-15T16:12:56.540Z,17.69
2023-02-15T16:15:36.283Z,17.57
2023-02-15T16:18:03.215Z,17.50
2023-02-15T16:20:36.839Z,17.36
2023-02-15T16:23:21.410Z,17.27
2023-02-15T16:26:19.245Z,17.17
2023-02-15T16:28:53.673Z,17.06
2023-02-15T16:31:23.252Z,16.99
2023-02-15T16:33:54.379Z,16.87
2023-02-15T16:36:28.699Z,16.77
2023-02-15T16:38:58.327Z,16.68
2023-02-15T16:41:29.948Z,16.60
2023-02-15T16:44:13.973Z,16.48
2023-02-15T16:46:44.541Z,16.43
2023-02-15T16:49:23.974Z,16.32
2023-02-15T16:52:01.159Z,16.23
2023-02-15T16:54:29.996Z,16.17
2023-02-15T16:56:59.797Z,16.08
2023-02-15T16:59:40.111Z,15.99
2023-02-15T17:02:23.611Z,15.92
2023-02-15T17:05:14.628Z,15.79
2023-02-15T17:07:43.628Z,15.71
2023-02-15T17:10:37.167Z,15.60
2023-02-15T17:13:11.211Z,15.53
2023-02-15T17:15:40.682Z,15.45
2023-02-15T17:18:22.710Z,15.33
2023-02-15T17:20:53.284Z,15.29
2023-02-15T17:23:31.528Z,15.21
2023-02-15T17:26:01.529Z,15.15
2023-02-15T17:28:31.458Z,15.08
2023-02-15T17:30:59.409Z,15.00
2023-02-15T17:33:33.857Z,14.95
2023-02-15T17:36:16.907Z,14.87
2023-02-15T17:38:58.367Z,14.79
2023-02-15T17:41:24.948Z,14.77
2023-02-15T17:43:51.377Z,14.71
2023-02-15T17:46:19.824Z,14.67
2023-02-15T17:48:49.064Z,14.62
2023-02-15T17:51:17.086Z,14.59
2023-02-15T17:54:06.798Z,14.55
2023-02-15T17:56:37.982Z,14.52
2023-02-15T17:59:08.071Z,14.50
2023-02-15T18:01:55.945Z,14.45
2023-02-15T18:04:41.743Z,14.40
2023-02-15T18:07:28.945Z,14.34
2023-02-15T18:10:14.034Z,14.29
2023-02-15T18:12:40.798Z,14.24
2023-02-15T18:15:10.896Z,14.21
2023-02-15T18:17:42.661Z,14.15
2023-02-15T18:20:24.232Z,14.11
2023-02-15T18:22:52.165Z,14.11
2023-02-15T18:25:21.104Z,14.07
2023-02-15T18:27:47.466Z,14.05
2023-02-15T18:30:15.985Z,14.02
2023-02-15T18:32:43.353Z,13.99
2023-02-15T18:35:16.470Z,13.99
2023-02-15T18:37:45.370Z,13.95
2023-02-15T18:40:23.625Z,13.90
2023-02-15T18:42:50.084Z,13.89
2023-02-15T18:45:25.211Z,13.87
2023-02-15T18:47:51.694Z,13.87
2023-02-15T18:50:20.824Z,13.87
2023-02-15T18:52:50.901Z,13.91
2023-02-15T18:55:32.436Z,13.94
2023-02-15T18:57:59.412Z,14.03
2023-02-15T19:00:33.924Z,14.07
2023-02-15T19:03:02.844Z,14.15
2023-02-15T19:05:31.795Z,14.20
2023-02-15T19:08:01.546Z,14.26
2023-02-15T19:10:31.187Z,14.30
2023-02-15T19:12:57.838Z,14.38
2023-02-15T19:15:30.686Z,14.40
2023-02-15T19:17:57.405Z,14.46
2023-02-15T19:20:27.965Z,14.49
2023-02-15T19:22:56.402Z,14.52
2023-02-15T19:25:28.346Z,14.53
2023-02-15T19:27:56.273Z,14.55
2023-02-15T19:30:30.095Z,14.55
2023-02-15T19:32:58.525Z,14.55
2023-02-15T19:35:28.967Z,14.52
2023-02-15T19:38:00.366Z,14.50
2023-02-15T19:40:30.865Z,14.46
2023-02-15T19:42:59.726Z,14.42
2023-02-15T19:45:28.665Z,14.38
2023-02-15T19:47:55.230Z,14.35
2023-02-15T19:50:25.990Z,14.30
2023-02-15T19:52:54.409Z,14.28
2023-02-15T19:55:25.493Z,14.25
2023-02-15T19:57:53.057Z,14.22
2023-02-15T20:00:22.802Z,14.18
2023-02-15T20:02:49.606Z,14.17
2023-02-15T20:05:16.125Z,14.12
2023-02-15T20:07:47.002Z,14.08
2023-02-15T20:10:19.945Z,14.04
2023-02-15T20:12:47.582Z,14.00
2023-02-15T20:15:27.592Z,13.96
2023-02-15T20:17:54.288Z,13.93
2023-02-15T20:20:26.914Z,13.87
2023-02-15T20:22:55.265Z,13.84
2023-02-15T20:25:26.817Z,13.78
2023-02-15T20:27:53.838Z,13.76
2023-02-15T20:30:22.204Z,13.74
2023-02-15T20:32:49.021Z,13.72
2023-02-15T20:35:19.369Z,13.70
2023-02-15T20:37:47.708Z,13.68
2023-02-15T20:40:27.829Z,13.62
2023-02-15T20:42:56.284Z,13.63
2023-02-15T20:45:29.147Z,13.61
2023-02-15T20:47:56.009Z,13.61
2023-02-15T20:50:34.057Z,13.59
2023-02-15T20:53:02.589Z,13.59
2023-02-15T20:55:30.155Z,13.58
2023-02-15T20:57:57.958Z,13.61
2023-02-15T21:00:31.163Z,13.58
2023-02-15T21:02:59.852Z,13.56
2023-02-15T21:05:33.130Z,13.52
2023-02-15T21:08:00.429Z,13.52
2023-02-15T21:10:33.211Z,13.49
2023-02-15T21:13:01.174Z,13.47
2023-02-15T21:15:33.648Z,13.44
2023-02-15T21:18:06.201Z,13.43
2023-02-15T21:20:35.304Z,13.41
2023-02-15T21:23:05.031Z,13.38
2023-02-15T21:25:38.151Z,13.34
2023-02-15T21:28:09.786Z,13.34
2023-02-15T21:30:36.176Z,13.32
2023-02-15T21:33:02.851Z,13.30
2023-02-15T21:35:29.412Z,13.28
2023-02-15T21:37:56.262Z,13.28
2023-02-15T21:40:28.954Z,13.26
2023-02-15T21:43:14.695Z,13.25
2023-02-15T21:45:59.952Z,13.25
2023-02-15T21:48:26.372Z,13.22
2023-02-15T21:51:11.516Z,13.21
2023-02-15T21:53:43.719Z,13.17
2023-02-15T21:56:13.811Z,13.13
2023-02-15T21:58:40.284Z,13.11
2023-02-15T22:01:07.423Z,13.10
2023-02-15T22:03:38.107Z,13.08
2023-02-15T22:06:08.398Z,13.04
2023-02-15T22:08:34.953Z,13.02
2023-02-15T22:11:01.749Z,13.00
2023-02-15T22:13:31.735Z,12.97
2023-02-15T22:15:58.690Z,12.95
2023-02-15T22:18:28.238Z,12.92
2023-02-15T22:20:55.687Z,12.90
2023-02-15T22:23:23.135Z,12.86
2023-02-15T22:25:56.029Z,12.82
2023-02-15T22:28:43.467Z,12.77
2023-02-15T22:31:16.403Z,12.76
2023-02-15T22:33:44.760Z,12.75
2023-02-15T22:36:23.412Z,12.68
2023-02-15T22:38:49.903Z,12.69
2023-02-15T22:41:17.133Z,12.65
2023-02-15T22:43:46.123Z,12.63
2023-02-15T22:46:19.049Z,12.59
2023-02-15T22:48:50.081Z,12.58
2023-02-15T22:51:19.942Z,12.56
2023-02-15T22:53:49.418Z,12.56
2023-02-15T22:56:20.019Z,12.52
2023-02-15T22:58:49.404Z,12.51
2023-02-15T23:01:29.669Z,12.47
2023-02-15T23:03:56.417Z,12.47
2023-02-15T23:06:22.896Z,12.46
2023-02-15T23:08:49.480Z,12.44
2023-02-15T23:11:16.911Z,12.41
2023-02-15T23:13:43.246Z,12.42
2023-02-15T23:16:15.638Z,12.39
2023-02-15T23:18:44.140Z,12.38
2023-02-15T23:21:20.696Z,12.37
2023-02-15T23:23:50.387Z,12.37
2023-02-15T23:26:23.419Z,12.38
2023-02-15T23:28:51.516Z,12.38
2023-02-15T23:31:27.372Z,12.37
2023-02-15T23:33:54.834Z,12.38
2023-02-15T23:36:36.795Z,12.37
2023-02-15T23:39:41.834Z,12.35
2023-02-15T23:42:13.901Z,12.37
2023-02-15T23:44:42.938Z,12.37
2023-02-15T23:47:20.715Z,12.33
2023-02-15T23:49:47.486Z,12.35
2023-02-15T23:52:13.991Z,12.34
2023-02-15T23:54:40.346Z,12.34
2023-02-15T23:57:06.918Z,12.32
2023-02-15T23:59:33.279Z,12.32
